sensor_id;sensor_type;location;lat;lon;timestamp;P1;durP1;ratioP1;P2;durP2;ratioP2
82744;SDS011;72484;50.004;14.356;2024-03-29T00:02:45;6.50;;;2.30;;
82744;SDS011;72484;50.004;14.356;2024-03-29T00:06:47;6.80;;;2.60;;
82744;SDS011;72484;50.004;14.356;2024-03-29T00:10:48;6.40;;;2.30;;
82744;SDS011;72484;50.004;14.356;2024-03-29T00:14:47;6.50;;;2.30;;
82744;SDS011;72484;50.004;14.356;2024-03-29T00:18:46;6.60;;;2.30;;
82744;SDS011;72484;50.004;14.356;2024-03-29T00:22:45;7.00;;;2.60;;
82744;SDS011;72484;50.004;14.356;2024-03-29T00:26:45;6.50;;;2.10;;
82744;SDS011;72484;50.004;14.356;2024-03-29T00:30:46;7.30;;;2.50;;
82744;SDS011;72484;50.004;14.356;2024-03-29T00:34:48;7.00;;;2.50;;
82744;SDS011;72484;50.004;14.356;2024-03-29T00:38:49;6.60;;;2.40;;
82744;SDS011;72484;50.004;14.356;2024-03-29T00:42:48;6.90;;;2.50;;
82744;SDS011;72484;50.004;14.356;2024-03-29T00:46:48;7.00;;;2.90;;
82744;SDS011;72484;50.004;14.356;2024-03-29T00:50:47;7.30;;;3.00;;
82744;SDS011;72484;50.004;14.356;2024-03-29T00:54:47;7.20;;;2.60;;
82744;SDS011;72484;50.004;14.356;2024-03-29T00:58:45;6.60;;;2.30;;
82744;SDS011;72484;50.004;14.356;2024-03-29T01:02:44;6.10;;;2.10;;
82744;SDS011;72484;50.004;14.356;2024-03-29T01:06:42;7.00;;;2.30;;
82744;SDS011;72484;50.004;14.356;2024-03-29T01:10:43;6.90;;;2.20;;
82744;SDS011;72484;50.004;14.356;2024-03-29T01:14:43;6.40;;;2.30;;
82744;SDS011;72484;50.004;14.356;2024-03-29T01:18:41;6.70;;;2.40;;
82744;SDS011;72484;50.004;14.356;2024-03-29T01:22:39;6.40;;;2.20;;
82744;SDS011;72484;50.004;14.356;2024-03-29T01:26:38;7.00;;;2.50;;
82744;SDS011;72484;50.004;14.356;2024-03-29T01:30:37;6.10;;;2.00;;
82744;SDS011;72484;50.004;14.356;2024-03-29T01:34:39;6.80;;;2.60;;
82744;SDS011;72484;50.004;14.356;2024-03-29T01:38:39;6.50;;;2.10;;
82744;SDS011;72484;50.004;14.356;2024-03-29T01:42:40;5.90;;;2.00;;
82744;SDS011;72484;50.004;14.356;2024-03-29T01:46:39;5.80;;;1.80;;
82744;SDS011;72484;50.004;14.356;2024-03-29T01:50:40;7.20;;;2.00;;
82744;SDS011;72484;50.004;14.356;2024-03-29T01:54:40;6.50;;;2.40;;
82744;SDS011;72484;50.004;14.356;2024-03-29T01:58:43;6.90;;;2.40;;
82744;SDS011;72484;50.004;14.356;2024-03-29T02:02:46;5.60;;;1.80;;
82744;SDS011;72484;50.004;14.356;2024-03-29T02:06:46;6.70;;;2.50;;
82744;SDS011;72484;50.004;14.356;2024-03-29T02:10:46;6.60;;;2.70;;
82744;SDS011;72484;50.004;14.356;2024-03-29T02:14:49;7.00;;;2.40;;
82744;SDS011;72484;50.004;14.356;2024-03-29T02:18:49;6.50;;;2.40;;
82744;SDS011;72484;50.004;14.356;2024-03-29T02:22:51;6.30;;;2.30;;
82744;SDS011;72484;50.004;14.356;2024-03-29T02:26:54;8.60;;;2.60;;
82744;SDS011;72484;50.004;14.356;2024-03-29T02:30:52;7.80;;;2.90;;
82744;SDS011;72484;50.004;14.356;2024-03-29T02:34:55;7.10;;;2.80;;
82744;SDS011;72484;50.004;14.356;2024-03-29T02:38:57;7.20;;;2.50;;
82744;SDS011;72484;50.004;14.356;2024-03-29T02:42:57;6.50;;;2.20;;
82744;SDS011;72484;50.004;14.356;2024-03-29T02:46:56;6.90;;;1.90;;
82744;SDS011;72484;50.004;14.356;2024-03-29T02:50:57;6.20;;;2.20;;
82744;SDS011;72484;50.004;14.356;2024-03-29T02:54:56;6.00;;;2.00;;
82744;SDS011;72484;50.004;14.356;2024-03-29T02:58:57;6.70;;;2.20;;
82744;SDS011;72484;50.004;14.356;2024-03-29T03:02:56;6.90;;;2.40;;
82744;SDS011;72484;50.004;14.356;2024-03-29T03:06:54;5.80;;;1.90;;
82744;SDS011;72484;50.004;14.356;2024-03-29T03:11:11;6.00;;;2.20;;
82744;SDS011;72484;50.004;14.356;2024-03-29T03:15:10;7.20;;;2.70;;
82744;SDS011;72484;50.004;14.356;2024-03-29T03:19:07;6.30;;;2.40;;
82744;SDS011;72484;50.004;14.356;2024-03-29T03:23:08;6.10;;;2.30;;
82744;SDS011;72484;50.004;14.356;2024-03-29T03:27:08;6.20;;;2.10;;
82744;SDS011;72484;50.004;14.356;2024-03-29T03:31:08;6.10;;;2.20;;
82744;SDS011;72484;50.004;14.356;2024-03-29T03:35:11;5.70;;;2.20;;
82744;SDS011;72484;50.004;14.356;2024-03-29T03:39:14;6.30;;;2.10;;
82744;SDS011;72484;50.004;14.356;2024-03-29T03:43:14;6.60;;;2.50;;
82744;SDS011;72484;50.004;14.356;2024-03-29T03:47:15;6.50;;;2.10;;
82744;SDS011;72484;50.004;14.356;2024-03-29T03:51:16;6.60;;;2.40;;
82744;SDS011;72484;50.004;14.356;2024-03-29T03:55:19;7.10;;;2.20;;
82744;SDS011;72484;50.004;14.356;2024-03-29T03:59:22;6.10;;;2.20;;
82744;SDS011;72484;50.004;14.356;2024-03-29T04:03:24;7.80;;;2.20;;
82744;SDS011;72484;50.004;14.356;2024-03-29T04:07:25;6.10;;;1.90;;
82744;SDS011;72484;50.004;14.356;2024-03-29T04:11:28;5.80;;;1.80;;
82744;SDS011;72484;50.004;14.356;2024-03-29T04:15:29;6.50;;;1.90;;
82744;SDS011;72484;50.004;14.356;2024-03-29T04:19:29;6.30;;;1.90;;
82744;SDS011;72484;50.004;14.356;2024-03-29T04:23:31;5.90;;;1.80;;
82744;SDS011;72484;50.004;14.356;2024-03-29T04:27:32;5.80;;;1.90;;
82744;SDS011;72484;50.004;14.356;2024-03-29T04:31:32;6.60;;;2.10;;
82744;SDS011;72484;50.004;14.356;2024-03-29T04:35:33;6.20;;;2.20;;
82744;SDS011;72484;50.004;14.356;2024-03-29T04:39:33;5.90;;;1.90;;
82744;SDS011;72484;50.004;14.356;2024-03-29T04:43:34;5.90;;;1.90;;
82744;SDS011;72484;50.004;14.356;2024-03-29T04:47:36;5.90;;;1.70;;
82744;SDS011;72484;50.004;14.356;2024-03-29T04:51:37;6.70;;;1.90;;
82744;SDS011;72484;50.004;14.356;2024-03-29T04:55:38;6.20;;;1.80;;
82744;SDS011;72484;50.004;14.356;2024-03-29T04:59:40;6.50;;;2.10;;
82744;SDS011;72484;50.004;14.356;2024-03-29T05:03:41;5.50;;;1.90;;
82744;SDS011;72484;50.004;14.356;2024-03-29T05:07:41;6.20;;;2.00;;
82744;SDS011;72484;50.004;14.356;2024-03-29T05:11:39;5.30;;;1.60;;
82744;SDS011;72484;50.004;14.356;2024-03-29T05:15:37;6.00;;;1.70;;
82744;SDS011;72484;50.004;14.356;2024-03-29T05:19:37;6.10;;;1.80;;
82744;SDS011;72484;50.004;14.356;2024-03-29T05:23:41;5.90;;;1.70;;
82744;SDS011;72484;50.004;14.356;2024-03-29T05:27:41;5.60;;;1.70;;
82744;SDS011;72484;50.004;14.356;2024-03-29T05:31:40;5.90;;;2.00;;
82744;SDS011;72484;50.004;14.356;2024-03-29T05:35:40;5.30;;;1.70;;
82744;SDS011;72484;50.004;14.356;2024-03-29T05:39:41;5.50;;;1.90;;
82744;SDS011;72484;50.004;14.356;2024-03-29T05:43:40;6.10;;;1.70;;
82744;SDS011;72484;50.004;14.356;2024-03-29T05:47:39;5.90;;;1.80;;
82744;SDS011;72484;50.004;14.356;2024-03-29T05:51:39;5.60;;;1.60;;
82744;SDS011;72484;50.004;14.356;2024-03-29T05:55:38;6.50;;;1.60;;
82744;SDS011;72484;50.004;14.356;2024-03-29T05:59:41;5.50;;;1.70;;
82744;SDS011;72484;50.004;14.356;2024-03-29T06:03:43;6.10;;;1.80;;
82744;SDS011;72484;50.004;14.356;2024-03-29T06:07:41;5.60;;;1.80;;
82744;SDS011;72484;50.004;14.356;2024-03-29T06:11:38;5.90;;;1.50;;
82744;SDS011;72484;50.004;14.356;2024-03-29T06:15:37;5.80;;;1.40;;
82744;SDS011;72484;50.004;14.356;2024-03-29T06:20:20;6.30;;;1.70;;
82744;SDS011;72484;50.004;14.356;2024-03-29T06:23:37;5.80;;;1.60;;
82744;SDS011;72484;50.004;14.356;2024-03-29T06:27:39;6.10;;;1.80;;
82744;SDS011;72484;50.004;14.356;2024-03-29T06:31:43;5.90;;;1.70;;
82744;SDS011;72484;50.004;14.356;2024-03-29T06:35:54;7.60;;;1.90;;
82744;SDS011;72484;50.004;14.356;2024-03-29T06:39:58;7.70;;;2.70;;
82744;SDS011;72484;50.004;14.356;2024-03-29T06:44:04;8.80;;;2.80;;
82744;SDS011;72484;50.004;14.356;2024-03-29T06:48:08;5.60;;;1.70;;
82744;SDS011;72484;50.004;14.356;2024-03-29T06:52:11;6.40;;;1.50;;
82744;SDS011;72484;50.004;14.356;2024-03-29T06:56:12;6.20;;;1.70;;
82744;SDS011;72484;50.004;14.356;2024-03-29T07:00:13;6.30;;;1.70;;
82744;SDS011;72484;50.004;14.356;2024-03-29T07:04:13;6.00;;;1.70;;
82744;SDS011;72484;50.004;14.356;2024-03-29T07:08:12;6.10;;;1.80;;
82744;SDS011;72484;50.004;14.356;2024-03-29T07:12:11;5.90;;;2.00;;
82744;SDS011;72484;50.004;14.356;2024-03-29T07:16:14;6.60;;;2.00;;
82744;SDS011;72484;50.004;14.356;2024-03-29T07:20:15;6.40;;;2.00;;
82744;SDS011;72484;50.004;14.356;2024-03-29T07:24:15;6.90;;;2.00;;
82744;SDS011;72484;50.004;14.356;2024-03-29T07:28:17;7.60;;;1.90;;
82744;SDS011;72484;50.004;14.356;2024-03-29T07:32:16;7.00;;;1.70;;
82744;SDS011;72484;50.004;14.356;2024-03-29T07:36:14;5.60;;;1.70;;
82744;SDS011;72484;50.004;14.356;2024-03-29T07:40:15;5.90;;;1.50;;
82744;SDS011;72484;50.004;14.356;2024-03-29T07:44:16;5.60;;;1.50;;
82744;SDS011;72484;50.004;14.356;2024-03-29T07:48:18;6.30;;;1.50;;
82744;SDS011;72484;50.004;14.356;2024-03-29T07:52:19;6.00;;;1.80;;
82744;SDS011;72484;50.004;14.356;2024-03-29T07:56:20;6.30;;;1.50;;
82744;SDS011;72484;50.004;14.356;2024-03-29T08:00:21;7.00;;;1.30;;
82744;SDS011;72484;50.004;14.356;2024-03-29T08:04:22;6.40;;;1.40;;
82744;SDS011;72484;50.004;14.356;2024-03-29T08:08:22;6.90;;;1.60;;
82744;SDS011;72484;50.004;14.356;2024-03-29T08:12:23;7.40;;;1.60;;
82744;SDS011;72484;50.004;14.356;2024-03-29T08:16:24;6.70;;;1.60;;
82744;SDS011;72484;50.004;14.356;2024-03-29T08:20:23;6.10;;;1.40;;
82744;SDS011;72484;50.004;14.356;2024-03-29T08:24:24;5.60;;;1.60;;
82744;SDS011;72484;50.004;14.356;2024-03-29T08:28:23;7.10;;;1.60;;
82744;SDS011;72484;50.004;14.356;2024-03-29T08:32:23;5.20;;;1.20;;
82744;SDS011;72484;50.004;14.356;2024-03-29T08:36:22;5.20;;;1.10;;
82744;SDS011;72484;50.004;14.356;2024-03-29T08:40:23;5.70;;;1.40;;
82744;SDS011;72484;50.004;14.356;2024-03-29T08:44:24;5.10;;;1.30;;
82744;SDS011;72484;50.004;14.356;2024-03-29T08:48:21;4.90;;;1.10;;
82744;SDS011;72484;50.004;14.356;2024-03-29T08:52:29;5.60;;;0.90;;
82744;SDS011;72484;50.004;14.356;2024-03-29T08:56:49;7.00;;;0.90;;
82744;SDS011;72484;50.004;14.356;2024-03-29T09:00:11;4.70;;;0.70;;
82744;SDS011;72484;50.004;14.356;2024-03-29T09:04:14;5.00;;;0.90;;
82744;SDS011;72484;50.004;14.356;2024-03-29T09:08:16;4.90;;;0.60;;
82744;SDS011;72484;50.004;14.356;2024-03-29T09:12:14;4.80;;;0.70;;
82744;SDS011;72484;50.004;14.356;2024-03-29T09:16:17;5.60;;;0.90;;
82744;SDS011;72484;50.004;14.356;2024-03-29T09:20:20;5.00;;;0.60;;
82744;SDS011;72484;50.004;14.356;2024-03-29T09:24:20;4.10;;;0.60;;
82744;SDS011;72484;50.004;14.356;2024-03-29T09:28:23;3.80;;;0.60;;
82744;SDS011;72484;50.004;14.356;2024-03-29T09:32:22;4.40;;;0.80;;
82744;SDS011;72484;50.004;14.356;2024-03-29T09:36:24;4.40;;;0.90;;
82744;SDS011;72484;50.004;14.356;2024-03-29T09:40:42;4.70;;;0.80;;
82744;SDS011;72484;50.004;14.356;2024-03-29T09:44:01;4.30;;;0.70;;
82744;SDS011;72484;50.004;14.356;2024-03-29T09:48:04;5.30;;;0.90;;
82744;SDS011;72484;50.004;14.356;2024-03-29T09:52:09;4.20;;;0.80;;
82744;SDS011;72484;50.004;14.356;2024-03-29T09:56:09;3.90;;;0.60;;
82744;SDS011;72484;50.004;14.356;2024-03-29T10:00:11;5.40;;;1.10;;
82744;SDS011;72484;50.004;14.356;2024-03-29T10:04:13;5.30;;;0.90;;
82744;SDS011;72484;50.004;14.356;2024-03-29T10:08:14;4.30;;;0.60;;
82744;SDS011;72484;50.004;14.356;2024-03-29T10:12:15;5.60;;;1.00;;
82744;SDS011;72484;50.004;14.356;2024-03-29T10:16:17;4.70;;;0.80;;
82744;SDS011;72484;50.004;14.356;2024-03-29T10:20:20;5.80;;;1.10;;
82744;SDS011;72484;50.004;14.356;2024-03-29T10:24:22;3.40;;;0.50;;
82744;SDS011;72484;50.004;14.356;2024-03-29T10:28:20;4.10;;;0.60;;
82744;SDS011;72484;50.004;14.356;2024-03-29T10:32:20;3.50;;;0.50;;
82744;SDS011;72484;50.004;14.356;2024-03-29T10:36:21;3.50;;;0.50;;
82744;SDS011;72484;50.004;14.356;2024-03-29T10:40:25;4.90;;;0.60;;
82744;SDS011;72484;50.004;14.356;2024-03-29T10:44:25;7.90;;;1.50;;
82744;SDS011;72484;50.004;14.356;2024-03-29T10:48:25;3.90;;;0.60;;
82744;SDS011;72484;50.004;14.356;2024-03-29T10:52:27;3.80;;;0.50;;
82744;SDS011;72484;50.004;14.356;2024-03-29T10:56:29;4.70;;;0.60;;
82744;SDS011;72484;50.004;14.356;2024-03-29T11:00:34;3.90;;;0.60;;
82744;SDS011;72484;50.004;14.356;2024-03-29T11:04:39;3.80;;;0.50;;
82744;SDS011;72484;50.004;14.356;2024-03-29T11:08:41;4.40;;;0.60;;
82744;SDS011;72484;50.004;14.356;2024-03-29T11:12:48;3.70;;;0.60;;
82744;SDS011;72484;50.004;14.356;2024-03-29T11:16:58;4.00;;;0.60;;
82744;SDS011;72484;50.004;14.356;2024-03-29T11:21:00;4.10;;;0.60;;
82744;SDS011;72484;50.004;14.356;2024-03-29T11:25:02;4.20;;;0.70;;
82744;SDS011;72484;50.004;14.356;2024-03-29T11:29:03;5.20;;;0.90;;
82744;SDS011;72484;50.004;14.356;2024-03-29T11:33:02;3.70;;;0.60;;
82744;SDS011;72484;50.004;14.356;2024-03-29T11:37:07;4.20;;;0.60;;
82744;SDS011;72484;50.004;14.356;2024-03-29T11:41:13;4.00;;;0.70;;
82744;SDS011;72484;50.004;14.356;2024-03-29T11:45:18;4.60;;;0.60;;
82744;SDS011;72484;50.004;14.356;2024-03-29T11:49:27;5.40;;;0.80;;
82744;SDS011;72484;50.004;14.356;2024-03-29T11:53:28;3.80;;;0.60;;
82744;SDS011;72484;50.004;14.356;2024-03-29T11:57:26;4.90;;;0.70;;
82744;SDS011;72484;50.004;14.356;2024-03-29T12:01:25;3.90;;;0.60;;
82744;SDS011;72484;50.004;14.356;2024-03-29T12:05:24;4.50;;;0.80;;
82744;SDS011;72484;50.004;14.356;2024-03-29T12:09:24;4.80;;;0.70;;
82744;SDS011;72484;50.004;14.356;2024-03-29T12:13:25;3.80;;;0.60;;
82744;SDS011;72484;50.004;14.356;2024-03-29T12:17:25;3.80;;;0.60;;
82744;SDS011;72484;50.004;14.356;2024-03-29T12:21:23;5.10;;;0.80;;
82744;SDS011;72484;50.004;14.356;2024-03-29T12:25:23;3.90;;;0.60;;
82744;SDS011;72484;50.004;14.356;2024-03-29T12:29:24;7.00;;;3.00;;
82744;SDS011;72484;50.004;14.356;2024-03-29T12:33:25;4.50;;;0.80;;
82744;SDS011;72484;50.004;14.356;2024-03-29T12:37:28;3.90;;;0.90;;
82744;SDS011;72484;50.004;14.356;2024-03-29T12:41:34;4.20;;;0.90;;
82744;SDS011;72484;50.004;14.356;2024-03-29T12:45:35;4.20;;;0.90;;
82744;SDS011;72484;50.004;14.356;2024-03-29T12:49:41;4.10;;;0.70;;
82744;SDS011;72484;50.004;14.356;2024-03-29T12:53:41;4.80;;;0.80;;
82744;SDS011;72484;50.004;14.356;2024-03-29T12:57:40;3.90;;;0.70;;
82744;SDS011;72484;50.004;14.356;2024-03-29T13:01:39;4.70;;;0.80;;
82744;SDS011;72484;50.004;14.356;2024-03-29T13:05:40;5.60;;;0.90;;
82744;SDS011;72484;50.004;14.356;2024-03-29T13:09:41;5.20;;;0.70;;
82744;SDS011;72484;50.004;14.356;2024-03-29T13:13:44;3.80;;;0.70;;
82744;SDS011;72484;50.004;14.356;2024-03-29T13:17:42;4.20;;;0.90;;
82744;SDS011;72484;50.004;14.356;2024-03-29T13:21:42;4.20;;;0.70;;
82744;SDS011;72484;50.004;14.356;2024-03-29T13:25:43;4.30;;;0.80;;
82744;SDS011;72484;50.004;14.356;2024-03-29T13:29:44;5.40;;;0.80;;
82744;SDS011;72484;50.004;14.356;2024-03-29T13:33:46;4.50;;;0.80;;
82744;SDS011;72484;50.004;14.356;2024-03-29T13:37:46;4.90;;;0.90;;
82744;SDS011;72484;50.004;14.356;2024-03-29T13:41:44;5.00;;;0.80;;
82744;SDS011;72484;50.004;14.356;2024-03-29T13:45:41;5.00;;;0.90;;
82744;SDS011;72484;50.004;14.356;2024-03-29T13:49:41;4.60;;;0.80;;
82744;SDS011;72484;50.004;14.356;2024-03-29T13:53:42;4.30;;;0.80;;
82744;SDS011;72484;50.004;14.356;2024-03-29T13:57:40;5.60;;;0.80;;
82744;SDS011;72484;50.004;14.356;2024-03-29T14:01:40;4.40;;;0.70;;
82744;SDS011;72484;50.004;14.356;2024-03-29T14:05:44;5.20;;;0.90;;
82744;SDS011;72484;50.004;14.356;2024-03-29T14:09:44;5.70;;;1.10;;
82744;SDS011;72484;50.004;14.356;2024-03-29T14:13:43;4.30;;;0.80;;
82744;SDS011;72484;50.004;14.356;2024-03-29T14:17:48;5.50;;;0.70;;
82744;SDS011;72484;50.004;14.356;2024-03-29T14:22:06;4.40;;;0.80;;
82744;SDS011;72484;50.004;14.356;2024-03-29T14:25:24;5.50;;;1.00;;
82744;SDS011;72484;50.004;14.356;2024-03-29T14:29:21;4.40;;;0.60;;
82744;SDS011;72484;50.004;14.356;2024-03-29T14:33:25;4.80;;;0.90;;
82744;SDS011;72484;50.004;14.356;2024-03-29T14:37:23;5.30;;;0.70;;
82744;SDS011;72484;50.004;14.356;2024-03-29T14:41:22;4.20;;;0.80;;
82744;SDS011;72484;50.004;14.356;2024-03-29T14:45:23;4.10;;;0.80;;
82744;SDS011;72484;50.004;14.356;2024-03-29T14:49:23;4.70;;;0.80;;
82744;SDS011;72484;50.004;14.356;2024-03-29T14:53:22;4.90;;;0.80;;
82744;SDS011;72484;50.004;14.356;2024-03-29T14:57:20;5.10;;;1.00;;
82744;SDS011;72484;50.004;14.356;2024-03-29T15:01:18;5.20;;;0.90;;
82744;SDS011;72484;50.004;14.356;2024-03-29T15:05:18;3.70;;;0.80;;
82744;SDS011;72484;50.004;14.356;2024-03-29T15:09:17;4.10;;;0.80;;
82744;SDS011;72484;50.004;14.356;2024-03-29T15:13:18;5.20;;;1.00;;
82744;SDS011;72484;50.004;14.356;2024-03-29T15:17:16;4.70;;;1.00;;
82744;SDS011;72484;50.004;14.356;2024-03-29T15:21:19;4.20;;;1.00;;
82744;SDS011;72484;50.004;14.356;2024-03-29T15:25:21;4.10;;;0.90;;
82744;SDS011;72484;50.004;14.356;2024-03-29T15:29:23;3.90;;;0.70;;
82744;SDS011;72484;50.004;14.356;2024-03-29T15:33:21;4.90;;;0.80;;
82744;SDS011;72484;50.004;14.356;2024-03-29T15:37:21;5.40;;;0.90;;
82744;SDS011;72484;50.004;14.356;2024-03-29T15:41:23;5.50;;;1.00;;
82744;SDS011;72484;50.004;14.356;2024-03-29T15:45:22;4.70;;;0.90;;
82744;SDS011;72484;50.004;14.356;2024-03-29T15:49:25;5.20;;;0.90;;
82744;SDS011;72484;50.004;14.356;2024-03-29T15:53:27;4.40;;;0.60;;
82744;SDS011;72484;50.004;14.356;2024-03-29T15:57:25;4.90;;;0.70;;
82744;SDS011;72484;50.004;14.356;2024-03-29T16:01:25;8.70;;;1.10;;
82744;SDS011;72484;50.004;14.356;2024-03-29T16:05:25;5.00;;;0.70;;
82744;SDS011;72484;50.004;14.356;2024-03-29T16:09:23;5.00;;;1.00;;
82744;SDS011;72484;50.004;14.356;2024-03-29T16:13:24;5.60;;;0.90;;
82744;SDS011;72484;50.004;14.356;2024-03-29T16:17:25;6.60;;;0.70;;
82744;SDS011;72484;50.004;14.356;2024-03-29T16:21:25;5.40;;;1.00;;
82744;SDS011;72484;50.004;14.356;2024-03-29T16:25:25;5.20;;;1.00;;
82744;SDS011;72484;50.004;14.356;2024-03-29T16:29:24;5.10;;;0.90;;
82744;SDS011;72484;50.004;14.356;2024-03-29T16:33:23;5.20;;;1.00;;
82744;SDS011;72484;50.004;14.356;2024-03-29T16:37:23;5.40;;;1.00;;
82744;SDS011;72484;50.004;14.356;2024-03-29T16:41:21;5.20;;;1.30;;
82744;SDS011;72484;50.004;14.356;2024-03-29T16:45:20;5.50;;;0.90;;
82744;SDS011;72484;50.004;14.356;2024-03-29T16:49:20;5.00;;;0.90;;
82744;SDS011;72484;50.004;14.356;2024-03-29T16:53:20;5.00;;;0.90;;
82744;SDS011;72484;50.004;14.356;2024-03-29T16:57:17;5.10;;;0.90;;
82744;SDS011;72484;50.004;14.356;2024-03-29T17:01:16;4.90;;;0.90;;
82744;SDS011;72484;50.004;14.356;2024-03-29T17:05:14;4.70;;;0.90;;
82744;SDS011;72484;50.004;14.356;2024-03-29T17:09:33;5.90;;;1.00;;
82744;SDS011;72484;50.004;14.356;2024-03-29T17:13:34;5.00;;;1.00;;
82744;SDS011;72484;50.004;14.356;2024-03-29T17:17:33;5.50;;;1.00;;
82744;SDS011;72484;50.004;14.356;2024-03-29T17:21:35;5.80;;;1.30;;
82744;SDS011;72484;50.004;14.356;2024-03-29T17:25:32;6.20;;;1.40;;
82744;SDS011;72484;50.004;14.356;2024-03-29T17:29:31;6.40;;;1.20;;
82744;SDS011;72484;50.004;14.356;2024-03-29T17:33:31;5.90;;;1.20;;
82744;SDS011;72484;50.004;14.356;2024-03-29T17:37:31;5.80;;;1.10;;
82744;SDS011;72484;50.004;14.356;2024-03-29T17:41:29;6.10;;;1.50;;
82744;SDS011;72484;50.004;14.356;2024-03-29T17:45:27;7.00;;;1.30;;
82744;SDS011;72484;50.004;14.356;2024-03-29T17:49:26;6.90;;;1.50;;
82744;SDS011;72484;50.004;14.356;2024-03-29T17:53:25;6.20;;;1.50;;
82744;SDS011;72484;50.004;14.356;2024-03-29T17:57:25;6.50;;;1.30;;
82744;SDS011;72484;50.004;14.356;2024-03-29T18:01:24;5.90;;;1.40;;
82744;SDS011;72484;50.004;14.356;2024-03-29T18:05:24;7.50;;;1.60;;
82744;SDS011;72484;50.004;14.356;2024-03-29T18:09:23;6.40;;;1.60;;
82744;SDS011;72484;50.004;14.356;2024-03-29T18:13:22;7.10;;;1.70;;
82744;SDS011;72484;50.004;14.356;2024-03-29T18:17:20;6.90;;;1.50;;
82744;SDS011;72484;50.004;14.356;2024-03-29T18:21:21;5.90;;;1.60;;
82744;SDS011;72484;50.004;14.356;2024-03-29T18:25:22;8.10;;;2.00;;
82744;SDS011;72484;50.004;14.356;2024-03-29T18:29:23;6.80;;;1.60;;
82744;SDS011;72484;50.004;14.356;2024-03-29T18:33:22;5.90;;;1.50;;
82744;SDS011;72484;50.004;14.356;2024-03-29T18:37:23;7.90;;;1.90;;
82744;SDS011;72484;50.004;14.356;2024-03-29T18:41:22;7.00;;;1.90;;
82744;SDS011;72484;50.004;14.356;2024-03-29T18:45:25;6.80;;;1.80;;
82744;SDS011;72484;50.004;14.356;2024-03-29T18:49:25;6.50;;;1.60;;
82744;SDS011;72484;50.004;14.356;2024-03-29T18:53:24;5.80;;;1.10;;
82744;SDS011;72484;50.004;14.356;2024-03-29T18:57:25;6.80;;;1.70;;
82744;SDS011;72484;50.004;14.356;2024-03-29T19:01:28;6.50;;;1.50;;
82744;SDS011;72484;50.004;14.356;2024-03-29T19:05:30;7.00;;;2.00;;
82744;SDS011;72484;50.004;14.356;2024-03-29T19:09:32;7.80;;;1.80;;
82744;SDS011;72484;50.004;14.356;2024-03-29T19:13:29;7.00;;;1.90;;
82744;SDS011;72484;50.004;14.356;2024-03-29T19:17:28;7.20;;;2.20;;
82744;SDS011;72484;50.004;14.356;2024-03-29T19:21:31;7.10;;;2.10;;
82744;SDS011;72484;50.004;14.356;2024-03-29T19:25:33;8.10;;;2.10;;
82744;SDS011;72484;50.004;14.356;2024-03-29T19:29:34;7.20;;;2.10;;
82744;SDS011;72484;50.004;14.356;2024-03-29T19:33:34;8.50;;;2.20;;
82744;SDS011;72484;50.004;14.356;2024-03-29T19:37:36;7.50;;;2.00;;
82744;SDS011;72484;50.004;14.356;2024-03-29T19:41:39;6.60;;;1.60;;
82744;SDS011;72484;50.004;14.356;2024-03-29T19:45:43;8.60;;;1.90;;
82744;SDS011;72484;50.004;14.356;2024-03-29T19:49:44;7.00;;;1.90;;
82744;SDS011;72484;50.004;14.356;2024-03-29T19:53:44;8.00;;;2.20;;
82744;SDS011;72484;50.004;14.356;2024-03-29T19:57:45;8.00;;;1.90;;
82744;SDS011;72484;50.004;14.356;2024-03-29T20:01:44;6.60;;;1.90;;
82744;SDS011;72484;50.004;14.356;2024-03-29T20:05:43;6.60;;;1.60;;
82744;SDS011;72484;50.004;14.356;2024-03-29T20:09:43;6.90;;;1.90;;
82744;SDS011;72484;50.004;14.356;2024-03-29T20:13:43;7.60;;;1.90;;
82744;SDS011;72484;50.004;14.356;2024-03-29T20:17:43;7.90;;;1.90;;
82744;SDS011;72484;50.004;14.356;2024-03-29T20:21:42;7.70;;;1.70;;
82744;SDS011;72484;50.004;14.356;2024-03-29T20:25:41;7.10;;;1.80;;
82744;SDS011;72484;50.004;14.356;2024-03-29T20:29:40;7.40;;;1.80;;
82744;SDS011;72484;50.004;14.356;2024-03-29T20:33:41;6.80;;;1.70;;
82744;SDS011;72484;50.004;14.356;2024-03-29T20:37:40;7.30;;;1.90;;
82744;SDS011;72484;50.004;14.356;2024-03-29T20:41:41;6.80;;;1.50;;
82744;SDS011;72484;50.004;14.356;2024-03-29T20:45:39;7.30;;;1.60;;
82744;SDS011;72484;50.004;14.356;2024-03-29T20:49:40;8.10;;;1.80;;
82744;SDS011;72484;50.004;14.356;2024-03-29T20:53:39;8.90;;;2.00;;
82744;SDS011;72484;50.004;14.356;2024-03-29T20:57:37;8.00;;;2.20;;
82744;SDS011;72484;50.004;14.356;2024-03-29T21:01:35;9.30;;;2.20;;
82744;SDS011;72484;50.004;14.356;2024-03-29T21:05:52;8.00;;;2.00;;
82744;SDS011;72484;50.004;14.356;2024-03-29T21:09:52;7.10;;;1.80;;
82744;SDS011;72484;50.004;14.356;2024-03-29T21:13:50;7.60;;;1.80;;
82744;SDS011;72484;50.004;14.356;2024-03-29T21:17:49;7.30;;;1.90;;
82744;SDS011;72484;50.004;14.356;2024-03-29T21:21:49;6.90;;;2.00;;
82744;SDS011;72484;50.004;14.356;2024-03-29T21:25:48;8.20;;;2.30;;
82744;SDS011;72484;50.004;14.356;2024-03-29T21:29:50;8.60;;;1.80;;
82744;SDS011;72484;50.004;14.356;2024-03-29T21:33:53;8.90;;;3.00;;
82744;SDS011;72484;50.004;14.356;2024-03-29T21:37:52;8.00;;;2.20;;
82744;SDS011;72484;50.004;14.356;2024-03-29T21:41:51;8.60;;;2.00;;
82744;SDS011;72484;50.004;14.356;2024-03-29T21:45:50;7.80;;;2.20;;
82744;SDS011;72484;50.004;14.356;2024-03-29T21:49:51;8.50;;;2.50;;
82744;SDS011;72484;50.004;14.356;2024-03-29T21:53:52;7.40;;;2.20;;
82744;SDS011;72484;50.004;14.356;2024-03-29T21:57:50;7.90;;;2.20;;
82744;SDS011;72484;50.004;14.356;2024-03-29T22:01:50;9.10;;;2.40;;
82744;SDS011;72484;50.004;14.356;2024-03-29T22:05:51;8.90;;;2.10;;
82744;SDS011;72484;50.004;14.356;2024-03-29T22:09:50;8.70;;;2.20;;
82744;SDS011;72484;50.004;14.356;2024-03-29T22:13:50;8.00;;;2.40;;
82744;SDS011;72484;50.004;14.356;2024-03-29T22:17:51;8.50;;;2.30;;
82744;SDS011;72484;50.004;14.356;2024-03-29T22:21:49;8.00;;;2.50;;
82744;SDS011;72484;50.004;14.356;2024-03-29T22:25:51;7.60;;;1.80;;
82744;SDS011;72484;50.004;14.356;2024-03-29T22:29:50;7.50;;;2.10;;
82744;SDS011;72484;50.004;14.356;2024-03-29T22:33:48;8.30;;;2.10;;
82744;SDS011;72484;50.004;14.356;2024-03-29T22:37:47;8.60;;;2.10;;
82744;SDS011;72484;50.004;14.356;2024-03-29T22:41:45;8.50;;;2.20;;
82744;SDS011;72484;50.004;14.356;2024-03-29T22:45:45;7.50;;;1.90;;
82744;SDS011;72484;50.004;14.356;2024-03-29T22:49:44;8.10;;;2.30;;
82744;SDS011;72484;50.004;14.356;2024-03-29T22:53:42;9.10;;;2.60;;
82744;SDS011;72484;50.004;14.356;2024-03-29T22:57:41;12.00;;;2.60;;
82744;SDS011;72484;50.004;14.356;2024-03-29T23:01:44;9.40;;;3.10;;
82744;SDS011;72484;50.004;14.356;2024-03-29T23:05:46;9.50;;;3.20;;
82744;SDS011;72484;50.004;14.356;2024-03-29T23:09:46;11.60;;;3.70;;
82744;SDS011;72484;50.004;14.356;2024-03-29T23:13:47;9.60;;;3.50;;
82744;SDS011;72484;50.004;14.356;2024-03-29T23:17:47;11.40;;;3.60;;
82744;SDS011;72484;50.004;14.356;2024-03-29T23:21:48;10.90;;;3.40;;
82744;SDS011;72484;50.004;14.356;2024-03-29T23:25:47;9.80;;;3.40;;
82744;SDS011;72484;50.004;14.356;2024-03-29T23:29:46;10.80;;;3.70;;
82744;SDS011;72484;50.004;14.356;2024-03-29T23:33:46;10.90;;;3.70;;
82744;SDS011;72484;50.004;14.356;2024-03-29T23:37:45;9.30;;;3.10;;
82744;SDS011;72484;50.004;14.356;2024-03-29T23:41:48;10.20;;;3.40;;
82744;SDS011;72484;50.004;14.356;2024-03-29T23:45:46;11.00;;;3.20;;